Time;durP1;ratioP1;P1;durP2;ratioP2;P2;SDS_P1;SDS_P2;PMS_P1;PMS_P2;Temp;Humidity;BMP_temperature;BMP_pressure;BME280_temperature;BME280_humidity;BME280_pressure;Samples;Min_cycle;Max_cycle;Signal;HPM_P1;HPM_P2
2023/11/19 00:00:30;;;;;;;58.35;21.90;;;;;;;-4.12;58.14;100559.63;6235699;22;20000;-88
2023/11/19 00:02:57;;;;;;;56.63;20.73;;;;;;;-4.44;58.15;100524.28;6108537;23;20043;-88
2023/11/19 00:08:11;;;;;;;44.28;15.95;;;;;;;-4.66;58.67;100490.56;6279167;22;20008;-90
2023/11/19 00:10:40;;;;;;;47.33;16.10;;;;;;;-4.53;59.25;100520.91;6282846;22;20003;-92
2023/11/19 00:16:16;;;;;;;33.97;14.63;;;;;;;-4.78;59.24;100477.66;6302476;22;20032;-90
2023/11/19 00:19:03;;;;;;;38.38;15.38;;;;;;;-4.59;58.89;100505.63;6267649;22;20357;-89
2023/11/19 00:22:28;;;;;;;42.30;17.13;;;;;;;-4.70;58.54;100498.09;6303698;22;20055;-89
2023/11/19 00:25:24;;;;;;;43.05;18.30;;;;;;;-4.42;58.45;100546.28;6301873;22;20049;-88
2023/11/19 00:32:26;;;;;;;44.63;14.20;;;;;;;-5.00;58.74;100467.91;6173729;23;19994;-88
2023/11/19 00:38:23;;;;;;;30.35;13.50;;;;;;;-5.10;58.78;100448.69;6304699;22;20007;-90
2023/11/19 00:40:49;;;;;;;29.52;13.32;;;;;;;-4.86;59.00;100493.78;6227269;22;19996;-90
2023/11/19 00:43:46;;;;;;;28.90;12.70;;;;;;;-4.62;58.96;100534.53;6245814;22;20019;-87
2023/11/19 00:46:59;;;;;;;28.77;12.88;;;;;;;-5.20;58.97;100440.94;6256932;22;20038;-89
2023/11/19 00:53:44;;;;;;;30.27;11.50;;;;;;;-4.79;59.00;100496.53;6270784;22;20007;-93
2023/11/19 00:56:14;;;;;;;26.60;12.20;;;;;;;-4.84;59.16;100485.56;6222649;22;20110;-88
2023/11/19 01:00:18;;;;;;;33.22;12.55;;;;;;;-4.67;58.73;100535.06;6286003;22;20027;-88
2023/11/19 01:03:18;;;;;;;30.60;11.93;;;;;;;-5.10;58.79;100472.69;6187057;23;20076;-89
2023/11/19 01:06:42;;;;;;;30.15;11.90;;;;;;;-4.77;59.03;100526.50;6186791;23;20017;-87
2023/11/19 01:09:12;;;;;;;;;;;;;;;-4.83;59.30;100519.25;6218470;22;20019;-86
2023/11/19 01:15:25;;;;;;;30.25;12.50;;;;;;;-4.94;59.46;100509.03;6278618;22;20019;-87
2023/11/19 01:21:39;;;;;;;34.30;13.20;;;;;;;-4.83;59.59;100495.25;6161660;23;20027;-88
2023/11/19 01:24:09;;;;;;;27.33;11.02;;;;;;;-5.04;59.90;100454.13;6246307;22;20019;-88
2023/11/19 01:27:22;;;;;;;24.08;11.25;;;;;;;-4.75;59.56;100490.63;6282515;22;20010;-88
2023/11/19 01:30:17;;;;;;;25.02;11.70;;;;;;;-4.73;59.75;100485.13;6278865;22;20015;-87
2023/11/19 01:36:39;;;;;;;32.60;12.43;;;;;;;-4.68;59.74;100484.56;6328530;22;20003;-91
2023/11/19 01:39:59;;;;;;;34.47;12.40;;;;;;;-4.68;59.26;100479.22;6278911;22;20050;-90
2023/11/19 01:42:29;;;;;;;30.73;12.88;;;;;;;-5.09;59.31;100421.84;6278249;22;20070;-88
2023/11/19 01:45:35;;;;;;;35.70;13.20;;;;;;;-4.68;59.37;100492.56;6279505;22;20031;-88
2023/11/19 01:48:18;;;;;;;26.30;12.23;;;;;;;-5.03;58.95;100428.31;6303813;22;20018;-89
2023/11/19 01:50:44;;;;;;;33.97;13.05;;;;;;;-5.18;59.59;100400.81;6330344;22;20055;-90
2023/11/19 01:53:10;;;;;;;36.35;14.00;;;;;;;-4.86;59.33;100445.75;6304764;22;19997;-87
2023/11/19 01:55:52;;;;;;;39.83;12.68;;;;;;;-5.06;59.09;100416.16;6277526;22;20031;-87
2023/11/19 01:58:25;;;;;;;39.10;14.32;;;;;;;-4.83;59.39;100440.06;6330692;22;20433;-93
2023/11/19 02:00:52;;;;;;;52.95;15.35;;;;;;;-4.80;59.58;100442.38;6277036;22;20015;-88
2023/11/19 02:03:35;;;;;;;37.08;13.30;;;;;;;-4.91;60.16;100432.16;6279155;22;20056;-88
2023/11/19 02:06:48;;;;;;;32.28;13.38;;;;;;;-5.12;59.93;100400.06;6253176;22;20023;-89
2023/11/19 02:09:44;;;;;;;35.47;13.23;;;;;;;-4.58;60.21;100475.25;6278845;22;19999;-90
2023/11/19 02:12:13;;;;;;;52.00;16.13;;;;;;;-5.07;60.17;100389.66;6301884;22;20016;-89
2023/11/19 02:21:02;;;;;;;45.97;15.35;;;;;;;-4.89;59.67;100438.13;6300684;22;20028;-88
2023/11/19 02:24:19;;;;;;;33.92;14.48;;;;;;;-4.59;59.35;100468.28;6273348;22;20023;-89
2023/11/19 02:27:48;;;;;;;28.13;13.40;;;;;;;-5.06;59.62;100396.69;6242755;22;20030;-92
2023/11/19 02:30:40;;;;;;;31.85;13.02;;;;;;;-4.54;60.20;100468.53;6219626;22;20094;-91
2023/11/19 02:33:15;;;;;;;30.63;12.52;;;;;;;-4.64;59.74;100440.50;6272668;22;20018;-91
2023/11/19 02:35:44;;;;;;;38.53;13.98;;;;;;;-4.64;58.56;100459.16;6271285;22;20023;-92
2023/11/19 02:38:17;;;;;;;39.70;16.25;;;;;;;-5.20;58.41;100371.66;6228006;22;20018;-89
2023/11/19 02:40:49;;;;;;;35.45;14.45;;;;;;;-4.87;58.74;100424.59;6276257;22;20023;-93
2023/11/19 02:43:16;;;;;;;43.40;14.25;;;;;;;-5.15;58.66;100389.78;6252329;22;20034;-90
2023/11/19 02:45:45;;;;;;;33.47;13.55;;;;;;;-4.84;58.90;100446.38;6301173;22;20098;-88
2023/11/19 02:52:05;;;;;;;39.33;14.90;;;;;;;-4.62;59.24;100465.97;6176700;23;20077;-88
2023/11/19 02:54:48;;;;;;;43.13;14.85;;;;;;;-5.24;59.14;100378.38;6131752;23;20018;-91
2023/11/19 02:57:33;;;;;;;62.30;16.67;;;;;;;-4.67;58.11;100475.53;6152144;23;20036;-88
2023/11/19 02:59:59;;;;;;;47.33;17.42;;;;;;;-5.13;58.45;100403.72;6165910;23;20512;-90
2023/11/19 03:02:33;;;;;;;65.85;18.75;;;;;;;-5.23;59.20;100383.53;6176409;23;20447;-91
2023/11/19 03:05:51;;;;;;;42.20;16.58;;;;;;;-4.78;58.93;100471.50;6202422;23;20008;-91
2023/11/19 03:08:19;;;;;;;45.42;17.48;;;;;;;-5.08;59.12;100417.34;6192531;22;20020;-89
2023/11/19 03:10:45;;;;;;;51.67;20.17;;;;;;;-5.27;59.26;100384.06;6217639;23;20043;-88
2023/11/19 03:13:16;;;;;;;41.83;18.15;;;;;;;-4.92;59.09;100432.34;6193117;22;20055;-90
2023/11/19 03:15:59;;;;;;;42.25;18.02;;;;;;;-5.17;59.01;100407.78;6243543;23;20042;-90
2023/11/19 03:24:26;;;;;;;46.80;17.33;;;;;;;-5.31;58.80;100380.13;6250816;23;20027;-91
2023/11/19 03:26:55;;;;;;;41.15;16.30;;;;;;;-5.28;58.95;100390.41;6191474;22;20004;-89
2023/11/19 03:29:22;;;;;;;57.42;18.08;;;;;;;-5.00;59.11;100439.44;6218022;22;20012;-90
2023/11/19 03:31:49;;;;;;;44.45;17.92;;;;;;;-4.93;58.93;100442.19;6226706;22;20034;-89
2023/11/19 03:34:43;;;;;;;38.40;17.35;;;;;;;-5.23;59.18;100388.03;6231748;22;20008;-88
2023/11/19 03:37:09;;;;;;;49.70;15.68;;;;;;;-4.99;59.19;100402.91;6217149;23;20026;-89
2023/11/19 03:39:36;;;;;;;50.28;18.00;;;;;;;-5.20;59.09;100375.16;6241201;23;20025;-91
2023/11/19 03:43:40;;;;;;;39.90;15.73;;;;;;;-4.70;59.16;100436.75;6109909;23;20029;-91
2023/11/19 03:46:40;;;;;;;43.38;17.05;;;;;;;-4.79;59.62;100444.00;6149798;23;20009;-90
2023/11/19 03:49:17;;;;;;;41.85;17.83;;;;;;;-5.00;59.89;100399.44;6148264;23;20073;-92
2023/11/19 03:54:53;;;;;;;36.75;16.77;;;;;;;-4.74;60.04;100422.09;6062091;22;20027;-89
2023/11/19 03:57:23;;;;;;;43.47;15.77;;;;;;;-5.17;59.38;100384.63;6249068;22;20029;-90
2023/11/19 04:00:14;;;;;;;49.33;16.55;;;;;;;-5.07;59.31;100406.50;6274945;22;19999;-89
2023/11/19 04:02:41;;;;;;;52.78;17.90;;;;;;;-5.10;59.18;100400.69;6155360;23;20050;-87
2023/11/19 04:07:57;;;;;;;40.50;16.38;;;;;;;-5.04;59.39;100408.78;6234172;23;20064;-90
2023/11/19 04:10:24;;;;;;;43.50;16.67;;;;;;;-5.02;58.94;100388.13;6142002;23;20016;-90
2023/11/19 04:13:04;;;;;;;47.60;18.07;;;;;;;-5.37;59.06;100357.69;6166874;23;20005;-91
2023/11/19 04:15:35;;;;;;;61.72;17.92;;;;;;;-4.88;58.71;100406.94;6214325;22;20254;-91
2023/11/19 04:18:28;;;;;;;49.17;16.50;;;;;;;-5.55;58.19;100301.28;6246310;22;20023;-89
2023/11/19 04:49:26;;;;;;;34.10;15.38;;;;;;;-4.97;58.92;100404.41;6335557;22;20049;-90
2023/11/19 04:54:46;;;;;;;53.00;19.38;;;;;;;-5.27;58.55;100360.91;6313013;22;20023;-89
2023/11/19 04:58:19;;;;;;;57.92;18.70;;;;;;;-4.93;58.93;100417.34;6334195;22;20039;-89
2023/11/19 05:00:49;;;;;;;53.63;18.10;;;;;;;-5.16;59.52;100382.81;6308213;22;20006;-88
2023/11/19 05:03:34;;;;;;;70.80;19.45;;;;;;;-5.45;59.27;100334.63;6307631;22;20006;-88
2023/11/19 05:06:44;;;;;;;50.60;17.95;;;;;;;-4.87;59.52;100433.41;6281081;22;20034;-89
2023/11/19 05:12:17;;;;;;;54.45;18.75;;;;;;;-4.95;59.06;100390.88;6303197;22;20000;-89
2023/11/19 05:14:52;;;;;;;50.90;18.65;;;;;;;-5.03;59.38;100383.81;6276863;22;20023;-87
2023/11/19 05:17:22;;;;;;;52.95;18.60;;;;;;;-4.74;59.10;100424.78;6251058;22;20465;-92
2023/11/19 05:20:13;;;;;;;57.97;20.65;;;;;;;-5.27;59.02;100336.91;6225414;22;20003;-90
2023/11/19 05:22:41;;;;;;;52.05;21.65;;;;;;;-4.97;59.24;100391.06;6260694;22;20027;-91
2023/11/19 05:25:38;;;;;;;58.78;20.52;;;;;;;-4.70;59.28;100417.22;6223791;22;20007;-90
2023/11/19 05:30:55;;;;;;;50.03;20.95;;;;;;;-5.02;58.84;100345.44;6297561;22;20008;-89
2023/11/19 05:33:22;;;;;;;;;;;;;;;-4.47;58.84;100439.25;6233090;22;20023;-90
2023/11/19 05:42:25;;;;;;;64.95;19.73;;;;;;;-4.35;58.70;100444.97;6300800;22;20032;-88
2023/11/19 05:49:00;;;;;;;55.10;20.10;;;;;;;-4.47;59.00;100399.22;6301509;22;20086;-89
2023/11/19 08:40:26;;;;;;;15.73;7.85;;;;;;;-1.88;55.80;100352.59;6287228;22;20047;-89
2023/11/19 08:51:45;;;;;;;12.45;7.72;;;;;;;-2.14;54.93;100311.38;6315469;22;20027;-91
2023/11/19 09:35:15;;;;;;;11.05;5.75;;;;;;;-1.23;50.03;100286.47;6299848;22;20057;-90
2023/11/19 17:32:21;;;;;;;40.47;16.30;;;;;;;-3.22;52.06;100059.09;6308534;22;20903;-87
2023/11/19 17:36:11;;;;;;;44.88;16.83;;;;;;;-3.01;52.06;100095.53;6289983;22;20009;-89
2023/11/19 17:38:54;;;;;;;39.20;16.25;;;;;;;-3.43;52.03;100027.22;6307123;22;20070;-86
2023/11/19 17:41:21;;;;;;;33.05;16.05;;;;;;;-3.26;52.19;100057.03;6278723;22;20019;-86
2023/11/19 17:50:09;;;;;;;44.45;18.65;;;;;;;-3.09;52.35;100101.88;6299420;22;20012;-86
2023/11/19 17:59:03;;;;;;;48.63;17.80;;;;;;;-3.08;52.64;100087.50;6302044;22;20024;-87
2023/11/19 18:01:39;;;;;;;49.15;20.17;;;;;;;-3.68;53.14;99993.03;6277409;22;20020;-88
2023/11/19 18:11:16;;;;;;;41.13;17.48;;;;;;;-3.00;52.68;100088.34;6308972;22;20023;-86
2023/11/19 18:13:49;;;;;;;44.05;18.52;;;;;;;-3.31;52.64;100050.47;6276032;22;20027;-86
2023/11/19 18:20:13;;;;;;;42.00;17.92;;;;;;;-3.39;52.80;100020.44;6259913;22;20024;-85
2023/11/19 18:23:15;;;;;;;74.78;18.70;;;;;;;-3.39;52.66;100013.22;6181801;23;20013;-88
2023/11/19 18:26:22;;;;;;;35.25;16.65;;;;;;;-3.68;52.96;99973.53;6165276;23;20027;-86
2023/11/19 18:29:16;;;;;;;49.80;18.70;;;;;;;-2.96;53.03;100087.72;6206339;23;20025;-88
2023/11/19 18:32:25;;;;;;;36.83;17.85;;;;;;;-3.04;53.08;100084.44;6144765;23;20008;-86
2023/11/19 18:35:27;;;;;;;39.50;17.02;;;;;;;-2.96;52.76;100097.59;6035573;23;20014;-86
2023/11/19 18:38:36;;;;;;;47.72;17.98;;;;;;;-3.07;52.71;100089.16;6119409;23;20009;-85
2023/11/19 18:41:46;;;;;;;44.83;20.08;;;;;;;-3.44;52.62;100015.69;6014462;23;20105;-87
